Time;durP1;ratioP1;P1;durP2;ratioP2;P2;SDS_P1;SDS_P2;PMS_P1;PMS_P2;Temp;Humidity;BMP_temperature;BMP_pressure;BME280_temperature;BME280_humidity;BME280_pressure;Samples;Min_cycle;Max_cycle;Signal;HPM_P1;HPM_P2
2022/08/19 00:01:18;;;;;;;16.58;14.80;;;21.50;99.90;;;;;;5116647;28;20073;-74
2022/08/19 00:03:44;;;;;;;21.02;16.13;;;21.50;99.90;;;;;;5116324;28;20031;-76
2022/08/19 00:06:09;;;;;;;17.63;15.77;;;21.50;99.90;;;;;;5116515;28;20047;-75
2022/08/19 00:08:35;;;;;;;18.52;16.13;;;21.50;99.90;;;;;;5115016;28;20032;-73
2022/08/19 00:11:01;;;;;;;19.10;16.75;;;21.40;99.90;;;;;;5116515;27;20032;-77
2022/08/19 00:13:28;;;;;;;21.48;16.90;;;21.50;99.90;;;;;;5116366;28;20018;-76
2022/08/19 00:15:54;;;;;;;17.88;16.00;;;21.40;99.90;;;;;;5116197;28;20126;-77
2022/08/19 00:18:20;;;;;;;20.27;15.80;;;21.40;99.90;;;;;;5116178;28;20028;-73
2022/08/19 00:20:46;;;;;;;16.98;15.27;;;21.40;99.90;;;;;;5115049;28;20027;-74
2022/08/19 00:23:11;;;;;;;17.33;15.45;;;21.40;99.90;;;;;;5116062;28;20020;-73
2022/08/19 00:25:37;;;;;;;20.17;16.48;;;21.40;99.90;;;;;;5116074;28;20104;-77
2022/08/19 00:28:04;;;;;;;20.35;16.55;;;21.40;99.90;;;;;;5114659;28;20020;-76
2022/08/19 00:30:30;;;;;;;17.63;15.68;;;21.30;99.90;;;;;;5125222;27;20034;-74
2022/08/19 00:32:56;;;;;;;20.27;16.25;;;21.30;99.90;;;;;;5136435;27;20090;-73
2022/08/19 00:35:21;;;;;;;17.60;15.70;;;21.20;99.90;;;;;;5136512;27;20023;-76
2022/08/19 00:37:49;;;;;;;17.73;15.93;;;21.10;99.90;;;;;;5136244;27;20025;-76
2022/08/19 00:40:16;;;;;;;19.30;15.60;;;21.00;99.90;;;;;;5136382;27;20392;-76
2022/08/19 00:42:43;;;;;;;19.75;17.38;;;21.00;99.90;;;;;;5135965;27;20023;-73
2022/08/19 00:45:16;;;;;;;20.42;17.23;;;21.00;99.90;;;;;;5136292;27;20019;-73
2022/08/19 00:47:43;;;;;;;20.33;15.80;;;20.90;99.90;;;;;;5136113;27;20034;-73
2022/08/19 00:50:11;;;;;;;20.75;17.48;;;20.90;99.90;;;;;;5126587;27;20047;-73
2022/08/19 00:52:44;;;;;;;20.60;17.50;;;20.80;99.90;;;;;;5115598;28;20027;-73
2022/08/19 00:55:12;;;;;;;21.95;17.45;;;20.70;99.90;;;;;;5115663;28;20024;-76
2022/08/19 00:57:44;;;;;;;17.90;16.02;;;20.70;99.90;;;;;;5115378;28;20024;-76
2022/08/19 01:00:13;;;;;;;23.20;17.98;;;20.60;99.90;;;;;;5115240;28;20027;-73
2022/08/19 01:02:41;;;;;;;18.58;16.58;;;20.70;99.90;;;;;;5115420;28;20140;-76
2022/08/19 01:05:14;;;;;;;18.85;16.85;;;20.60;99.90;;;;;;5115299;28;20358;-76
2022/08/19 01:07:41;;;;;;;20.48;17.08;;;20.60;99.90;;;;;;5115267;28;20034;-73
2022/08/19 01:10:11;;;;;;;19.92;16.98;;;20.60;99.90;;;;;;5115101;28;20048;-74
2022/08/19 01:12:37;;;;;;;18.73;16.73;;;20.50;99.90;;;;;;5115544;27;20027;-76
2022/08/19 01:15:05;;;;;;;21.92;18.67;;;20.50;99.90;;;;;;5113788;28;20030;-73
2022/08/19 01:17:31;;;;;;;23.85;18.70;;;20.50;99.90;;;;;;5115053;28;20016;-73
2022/08/19 01:19:57;;;;;;;21.40;17.52;;;20.50;99.90;;;;;;5113672;28;20047;-74
2022/08/19 01:22:22;;;;;;;18.88;16.92;;;20.50;99.90;;;;;;5115044;28;20028;-73
2022/08/19 01:24:48;;;;;;;21.15;17.30;;;20.50;99.90;;;;;;5113741;28;20048;-77
2022/08/19 01:27:14;;;;;;;22.80;18.27;;;20.50;99.90;;;;;;5114937;28;20409;-73
2022/08/19 01:29:43;;;;;;;20.73;17.52;;;20.40;99.90;;;;;;5117151;27;20028;-77
2022/08/19 01:32:14;;;;;;;18.70;16.65;;;20.30;99.90;;;;;;5135290;27;20019;-76
2022/08/19 01:34:40;;;;;;;23.17;16.55;;;20.20;99.90;;;;;;5135336;27;20026;-76
2022/08/19 01:37:11;;;;;;;22.17;18.02;;;20.20;99.90;;;;;;5134016;27;20027;-77
2022/08/19 01:39:39;;;;;;;19.30;17.27;;;20.10;99.90;;;;;;5135149;27;20027;-73
2022/08/19 01:42:07;;;;;;;19.67;17.58;;;20.10;99.90;;;;;;5135141;27;20054;-73
2022/08/19 01:44:32;;;;;;;19.52;16.08;;;20.00;99.90;;;;;;5135065;27;20031;-73
2022/08/19 01:46:58;;;;;;;20.13;17.42;;;20.00;99.90;;;;;;5133755;27;20476;-73
2022/08/19 01:49:26;;;;;;;25.50;18.48;;;20.00;99.90;;;;;;5129895;27;20392;-73
2022/08/19 01:51:53;;;;;;;20.08;17.65;;;20.00;99.90;;;;;;5114412;28;20054;-73
2022/08/19 01:54:20;;;;;;;20.75;17.50;;;20.00;99.90;;;;;;5112264;28;20031;-76
2022/08/19 01:56:46;;;;;;;19.80;17.70;;;19.90;99.90;;;;;;5114431;28;20098;-76
2022/08/19 01:59:20;;;;;;;21.67;16.77;;;19.90;99.90;;;;;;5112642;28;20019;-76
2022/08/19 02:01:46;;;;;;;22.02;17.10;;;19.90;99.90;;;;;;5114353;28;20044;-76
2022/08/19 02:04:11;;;;;;;19.55;16.30;;;19.90;99.90;;;;;;5114036;28;20051;-76
2022/08/19 02:06:37;;;;;;;18.88;16.88;;;19.90;99.90;;;;;;5114193;28;20020;-76
2022/08/19 02:09:04;;;;;;;20.85;18.20;;;20.00;99.90;;;;;;5113959;28;20043;-73
2022/08/19 02:11:33;;;;;;;21.60;16.58;;;19.90;99.90;;;;;;5114259;28;20558;-76
2022/08/19 02:14:01;;;;;;;20.10;16.90;;;19.90;99.90;;;;;;5113880;28;20499;-77
2022/08/19 02:16:28;;;;;;;21.13;17.08;;;19.90;99.90;;;;;;5113986;28;20030;-73
2022/08/19 02:18:54;;;;;;;20.23;18.05;;;19.90;99.90;;;;;;5113875;28;20020;-77
2022/08/19 02:21:22;;;;;;;21.00;17.63;;;19.80;99.90;;;;;;5112623;28;20031;-77
2022/08/19 02:23:48;;;;;;;18.83;16.65;;;19.80;99.90;;;;;;5112637;28;20016;-77
2022/08/19 02:26:15;;;;;;;23.65;17.73;;;19.80;99.90;;;;;;5112386;28;20027;-77
2022/08/19 02:28:42;;;;;;;19.48;17.05;;;19.80;99.90;;;;;;5112536;28;20035;-77
2022/08/19 02:31:17;;;;;;;18.17;16.10;;;19.80;99.90;;;;;;5128853;27;20039;-77
2022/08/19 02:33:43;;;;;;;20.23;15.93;;;19.80;99.90;;;;;;5134185;27;20023;-76
2022/08/19 02:36:10;;;;;;;20.60;17.08;;;19.90;99.90;;;;;;5132869;27;20012;-73
2022/08/19 02:38:36;;;;;;;18.88;16.83;;;19.80;99.90;;;;;;5132917;27;20034;-77
2022/08/19 02:41:21;;;;;;;19.58;16.98;;;19.80;99.90;;;;;;5132913;27;20026;-74
2022/08/19 02:43:46;;;;;;;18.48;16.45;;;19.80;99.90;;;;;;5134126;27;20085;-77
2022/08/19 02:46:21;;;;;;;20.45;15.80;;;19.80;99.90;;;;;;5134112;27;20019;-77
2022/08/19 02:48:51;;;;;;;19.33;16.63;;;19.70;99.90;;;;;;5134092;27;20039;-77
2022/08/19 02:51:29;;;;;;;19.40;17.17;;;19.80;99.90;;;;;;5112912;28;20063;-76
2022/08/19 02:53:56;;;;;;;21.50;18.08;;;19.70;99.90;;;;;;5113323;28;20034;-77
2022/08/19 02:56:22;;;;;;;19.88;16.77;;;19.70;99.90;;;;;;5112120;28;20051;-74
2022/08/19 02:58:48;;;;;;;20.85;17.33;;;19.60;99.90;;;;;;5113446;28;20120;-73
2022/08/19 03:01:24;;;;;;;20.83;16.67;;;19.60;99.90;;;;;;5112041;28;20020;-77
2022/08/19 03:03:51;;;;;;;22.08;18.75;;;19.60;99.90;;;;;;5113398;28;20028;-76
2022/08/19 03:06:17;;;;;;;21.50;18.17;;;19.50;99.90;;;;;;5114166;28;20032;-73
2022/08/19 03:08:45;;;;;;;25.10;18.48;;;19.50;99.90;;;;;;5117635;28;20431;-73
2022/08/19 03:11:20;;;;;;;19.58;17.17;;;19.50;99.90;;;;;;5116180;28;20023;-73
2022/08/19 03:13:48;;;;;;;18.38;16.50;;;19.50;99.90;;;;;;5117574;28;20031;-76
2022/08/19 03:16:15;;;;;;;22.67;18.63;;;19.60;99.90;;;;;;5117381;28;20012;-73
2022/08/19 03:18:41;;;;;;;20.52;17.27;;;19.60;99.90;;;;;;5116146;28;20019;-76
2022/08/19 03:21:07;;;;;;;20.60;17.83;;;19.60;99.90;;;;;;5117328;28;20084;-74
2022/08/19 03:23:34;;;;;;;20.58;17.52;;;19.60;99.90;;;;;;5116071;28;20493;-77
2022/08/19 03:26:04;;;;;;;19.45;17.25;;;19.60;99.90;;;;;;5117106;28;20065;-77
2022/08/19 03:28:30;;;;;;;20.88;17.88;;;19.60;99.90;;;;;;5117606;28;20020;-76
2022/08/19 03:31:03;;;;;;;18.63;16.67;;;19.60;99.90;;;;;;5129884;27;20471;-76
2022/08/19 03:33:30;;;;;;;20.65;17.30;;;19.60;99.90;;;;;;5137708;27;20027;-73
2022/08/19 03:36:13;;;;;;;22.92;18.23;;;19.50;99.90;;;;;;5137603;27;20106;-76
2022/08/19 03:38:50;;;;;;;23.98;17.73;;;19.50;99.90;;;;;;5137883;27;20022;-76
2022/08/19 03:41:20;;;;;;;22.75;17.58;;;19.50;99.90;;;;;;5137474;27;20527;-76
2022/08/19 03:43:47;;;;;;;24.00;17.63;;;19.50;99.90;;;;;;5137325;27;20042;-73
2022/08/19 03:46:16;;;;;;;20.15;16.60;;;19.50;99.90;;;;;;5137382;27;20073;-76
2022/08/19 03:48:43;;;;;;;20.13;17.23;;;19.50;99.90;;;;;;5137293;27;20023;-76
2022/08/19 03:51:21;;;;;;;20.65;17.92;;;19.50;99.90;;;;;;5118224;27;20042;-73
2022/08/19 03:53:47;;;;;;;19.88;17.30;;;19.50;99.90;;;;;;5115451;28;20015;-73
2022/08/19 03:56:13;;;;;;;19.98;17.33;;;19.50;99.90;;;;;;5116583;28;20090;-73
2022/08/19 03:58:41;;;;;;;19.60;17.45;;;19.50;99.90;;;;;;5115388;28;20057;-73
2022/08/19 04:01:12;;;;;;;22.27;17.92;;;19.50;99.90;;;;;;5116635;28;20031;-73
2022/08/19 04:03:39;;;;;;;20.83;17.35;;;19.50;99.90;;;;;;5116454;28;20461;-73
2022/08/19 04:06:28;;;;;;;18.58;16.35;;;19.40;99.90;;;;;;5116446;28;20064;-77
2022/08/19 04:08:55;;;;;;;20.17;18.00;;;19.50;99.90;;;;;;5116464;28;20016;-77
2022/08/19 04:11:27;;;;;;;19.35;17.08;;;19.50;99.90;;;;;;5114932;28;20616;-74
2022/08/19 04:13:54;;;;;;;19.17;16.83;;;19.50;99.90;;;;;;5115100;28;20027;-77
2022/08/19 04:16:21;;;;;;;18.80;16.80;;;19.50;99.90;;;;;;5114981;28;20544;-74
2022/08/19 04:18:48;;;;;;;22.95;19.02;;;19.50;99.90;;;;;;5115507;27;20059;-72
2022/08/19 04:21:21;;;;;;;18.63;16.70;;;19.50;99.90;;;;;;5116194;28;20023;-73
2022/08/19 04:23:48;;;;;;;20.15;17.38;;;19.60;99.90;;;;;;5116235;28;20020;-73
2022/08/19 04:26:15;;;;;;;21.38;16.73;;;19.60;99.90;;;;;;5116087;28;20423;-77
2022/08/19 04:28:42;;;;;;;18.52;16.63;;;19.60;99.90;;;;;;5116109;27;20032;-73
2022/08/19 04:31:14;;;;;;;25.15;17.35;;;19.60;99.90;;;;;;5131919;27;20074;-77
2022/08/19 04:33:40;;;;;;;21.05;17.15;;;19.60;99.90;;;;;;5136524;27;20456;-76
2022/08/19 04:36:07;;;;;;;20.05;17.35;;;19.60;99.90;;;;;;5136527;27;20034;-74
2022/08/19 04:38:33;;;;;;;22.90;17.98;;;19.70;99.90;;;;;;5136483;27;20035;-76
2022/08/19 04:43:48;;;;;;;20.42;17.58;;;19.80;99.90;;;;;;5136618;27;20080;-73
2022/08/19 04:46:14;;;;;;;23.23;18.17;;;19.90;99.90;;;;;;5136243;27;20015;-73
2022/08/19 04:48:40;;;;;;;24.30;17.50;;;20.00;99.90;;;;;;5134747;27;20031;-72
2022/08/19 04:51:08;;;;;;;31.90;17.88;;;20.10;99.90;;;;;;5117282;27;20485;-73
2022/08/19 04:53:36;;;;;;;21.40;16.75;;;20.20;99.90;;;;;;5114190;28;20019;-76
2022/08/19 04:56:09;;;;;;;20.67;17.48;;;20.40;99.90;;;;;;5114217;28;20396;-72
2022/08/19 04:58:36;;;;;;;19.27;17.27;;;20.50;99.90;;;;;;5115485;28;20453;-76
2022/08/19 05:01:02;;;;;;;19.52;17.38;;;20.60;99.90;;;;;;5114223;28;20019;-72
2022/08/19 05:03:33;;;;;;;17.55;15.43;;;20.70;99.90;;;;;;5115241;28;20111;-72
2022/08/19 05:06:07;;;;;;;18.67;16.73;;;20.70;99.90;;;;;;5115317;28;20055;-73
2022/08/19 05:08:35;;;;;;;17.55;15.65;;;20.80;99.90;;;;;;5115288;28;20030;-77
2022/08/19 05:11:07;;;;;;;16.65;14.95;;;20.90;99.90;;;;;;5115328;28;20110;-76
2022/08/19 05:13:32;;;;;;;18.60;16.30;;;21.00;99.90;;;;;;5115238;28;20020;-73
2022/08/19 05:15:59;;;;;;;20.05;15.95;;;21.20;99.90;;;;;;5115071;28;20127;-74
2022/08/19 05:23:59;;;;;;;18.95;15.45;;;21.70;99.90;;;;;;5115122;28;20038;-77
2022/08/19 05:26:25;;;;;;;15.13;13.45;;;21.80;99.90;;;;;;5113760;28;20028;-73
2022/08/19 05:28:52;;;;;;;15.35;13.73;;;21.90;99.90;;;;;;5113953;28;20492;-73
2022/08/19 05:31:19;;;;;;;15.15;13.65;;;22.00;99.90;;;;;;5132425;27;20120;-77
2022/08/19 05:33:45;;;;;;;16.23;13.93;;;22.20;99.90;;;;;;5135104;27;20021;-73
2022/08/19 05:36:12;;;;;;;16.55;14.80;;;22.40;99.90;;;;;;5127880;27;20107;-74
2022/08/19 05:38:38;;;;;;;15.27;12.65;;;22.50;99.90;;;;;;5113124;28;20036;-77
2022/08/19 05:41:12;;;;;;;14.20;12.73;;;22.70;99.90;;;;;;5094554;28;20026;-77
2022/08/19 05:43:37;;;;;;;15.93;13.82;;;22.90;99.90;;;;;;5092837;28;20097;-72
2022/08/19 05:46:05;;;;;;;14.15;12.27;;;23.10;99.90;;;;;;5092786;28;20027;-77
2022/08/19 05:48:32;;;;;;;13.48;12.07;;;23.20;99.90;;;;;;5092386;28;20020;-77
2022/08/19 05:51:04;;;;;;;13.63;11.90;;;23.30;99.90;;;;;;5111987;28;20063;-76
2022/08/19 05:53:29;;;;;;;15.20;11.87;;;23.50;99.90;;;;;;5114004;28;20020;-77
2022/08/19 05:55:55;;;;;;;16.98;13.13;;;23.60;99.90;;;;;;5103307;28;20615;-75
2022/08/19 05:58:20;;;;;;;14.63;12.15;;;23.80;99.90;;;;;;5092535;28;20028;-73
2022/08/19 06:00:46;;;;;;;15.15;12.02;;;24.00;99.90;;;;;;5098164;28;20070;-74
2022/08/19 06:03:12;;;;;;;14.20;12.80;;;24.10;99.90;;;;;;5093414;28;20043;-73
2022/08/19 06:05:37;;;;;;;14.35;12.23;;;24.20;99.90;;;;;;5091905;28;20048;-77
2022/08/19 06:08:05;;;;;;;13.80;12.40;;;24.40;99.90;;;;;;5097395;28;20020;-73
2022/08/19 06:10:30;;;;;;;13.55;11.90;;;24.60;99.90;;;;;;5109057;28;20024;-73
2022/08/19 06:12:56;;;;;;;12.90;11.55;;;24.70;99.90;;;;;;5094933;28;20103;-73
2022/08/19 06:15:25;;;;;;;13.35;11.57;;;25.00;99.90;;;;;;5102921;28;20020;-74
2022/08/19 06:17:51;;;;;;;12.32;10.57;;;25.10;99.90;;;;;;5102595;28;20103;-72
2022/08/19 06:20:17;;;;;;;12.60;11.30;;;25.30;99.90;;;;;;5100614;28;20072;-73
2022/08/19 06:22:46;;;;;;;12.27;11.00;;;25.40;99.90;;;;;;5100655;27;20019;-72
2022/08/19 06:25:13;;;;;;;13.05;10.30;;;25.60;99.90;;;;;;5107318;28;20039;-73
2022/08/19 06:27:40;;;;;;;13.15;11.77;;;25.80;99.90;;;;;;5113521;28;20023;-72
2022/08/19 06:30:07;;;;;;;14.15;11.10;;;25.90;99.90;;;;;;5120081;27;20076;-73
2022/08/19 06:32:32;;;;;;;13.10;11.15;;;25.90;97.20;;;;;;5095534;28;20819;-73
2022/08/19 06:34:58;;;;;;;12.40;10.73;;;26.10;97.40;;;;;;5092088;28;20020;-74
2022/08/19 06:37:24;;;;;;;17.98;12.10;;;26.20;96.80;;;;;;5092233;28;20436;-73
2022/08/19 06:39:50;;;;;;;12.60;11.27;;;26.30;97.20;;;;;;5096222;27;20431;-73
2022/08/19 06:42:18;;;;;;;11.50;10.30;;;26.50;94.50;;;;;;5096028;28;20019;-72
2022/08/19 06:44:48;;;;;;;12.48;10.65;;;26.70;95.80;;;;;;5106300;27;20047;-73
2022/08/19 06:47:16;;;;;;;12.70;11.20;;;26.80;94.80;;;;;;5104928;28;20020;-73
2022/08/19 06:49:42;;;;;;;13.25;11.35;;;27.00;91.10;;;;;;5104643;27;20108;-73
2022/08/19 06:52:12;;;;;;;12.77;11.30;;;27.10;88.30;;;;;;5099530;28;20435;-77
2022/08/19 06:54:39;;;;;;;12.57;10.32;;;27.30;89.30;;;;;;5104373;28;20058;-78
2022/08/19 06:57:06;;;;;;;12.18;10.93;;;27.60;87.40;;;;;;5100147;28;20047;-78
2022/08/19 06:59:32;;;;;;;12.43;9.55;;;27.70;84.20;;;;;;5104250;27;20067;-73
2022/08/19 07:02:00;;;;;;;12.15;10.18;;;27.80;78.10;;;;;;5103044;28;20066;-72
2022/08/19 07:04:29;;;;;;;12.95;11.02;;;27.90;79.60;;;;;;5107417;27;20127;-72
2022/08/19 07:07:09;;;;;;;11.38;9.80;;;28.10;77.20;;;;;;5104207;28;20051;-73
2022/08/19 07:09:37;;;;;;;19.00;11.40;;;28.30;78.10;;;;;;5102750;27;20040;-73
2022/08/19 07:12:06;;;;;;;10.70;9.55;;;28.40;78.30;;;;;;5106845;28;20039;-73
2022/08/19 07:14:32;;;;;;;11.77;10.40;;;28.60;78.20;;;;;;5101638;28;20114;-72
2022/08/19 07:16:58;;;;;;;12.90;9.80;;;28.70;77.90;;;;;;5105418;28;20085;-72
2022/08/19 07:19:28;;;;;;;13.68;10.82;;;28.80;77.00;;;;;;5103685;27;20041;-77
2022/08/19 07:21:54;;;;;;;11.85;10.27;;;28.80;76.20;;;;;;5109872;28;20076;-77
2022/08/19 07:24:25;;;;;;;13.15;9.43;;;28.90;74.50;;;;;;5101925;27;20443;-77
2022/08/19 07:26:53;;;;;;;12.40;10.32;;;28.90;71.90;;;;;;5105337;28;20031;-77
2022/08/19 07:29:22;;;;;;;11.32;10.13;;;29.10;72.20;;;;;;5104889;27;20044;-77
2022/08/19 07:31:49;;;;;;;14.27;9.63;;;29.10;70.40;;;;;;5105151;28;20420;-77
2022/08/19 07:34:15;;;;;;;13.65;10.43;;;29.30;70.60;;;;;;5101131;27;20100;-72
2022/08/19 07:36:42;;;;;;;12.63;9.65;;;29.40;69.80;;;;;;5104866;28;20107;-77
2022/08/19 07:39:14;;;;;;;11.57;9.77;;;29.60;69.70;;;;;;5104937;27;20426;-78
2022/08/19 07:41:41;;;;;;;12.18;9.98;;;29.80;67.90;;;;;;5102195;28;20032;-78
2022/08/19 07:44:08;;;;;;;14.52;9.98;;;30.00;67.30;;;;;;5092503;28;20063;-77
2022/08/19 07:46:37;;;;;;;12.05;9.73;;;30.10;68.10;;;;;;5092455;28;20035;-73
2022/08/19 07:49:04;;;;;;;11.57;9.52;;;30.30;65.50;;;;;;5091724;28;20060;-73
2022/08/19 07:51:30;;;;;;;10.75;9.23;;;30.30;62.20;;;;;;5091695;28;20082;-73
2022/08/19 07:53:56;;;;;;;12.05;9.00;;;30.40;62.20;;;;;;5095226;28;20732;-73
2022/08/19 07:56:23;;;;;;;11.32;9.02;;;30.50;61.20;;;;;;5104161;28;20028;-73
2022/08/19 07:58:50;;;;;;;8.50;7.72;;;30.70;59.90;;;;;;5115891;28;20026;-72
2022/08/19 08:01:21;;;;;;;11.40;8.68;;;30.80;58.50;;;;;;5112941;27;20106;-73
2022/08/19 08:09:21;;;;;;;9.35;8.38;;;31.20;56.80;;;;;;5104161;28;20043;-78
2022/08/19 08:11:59;;;;;;;11.68;8.25;;;31.40;57.00;;;;;;5096028;28;20056;-73
2022/08/19 08:14:29;;;;;;;12.65;8.80;;;31.50;55.40;;;;;;5095784;28;20073;-74
2022/08/19 08:16:55;;;;;;;13.02;7.43;;;31.60;55.00;;;;;;5099255;28;20469;-73
2022/08/19 08:19:22;;;;;;;16.35;7.88;;;31.60;53.60;;;;;;5096135;28;20024;-78
2022/08/19 08:21:49;;;;;;;8.63;7.00;;;31.60;53.20;;;;;;5095900;28;20020;-74
2022/08/19 08:24:15;;;;;;;23.70;8.25;;;31.70;52.30;;;;;;5100488;28;20020;-73
2022/08/19 08:26:42;;;;;;;12.05;7.85;;;31.60;52.30;;;;;;5116095;28;20028;-78
2022/08/19 08:29:11;;;;;;;10.73;7.35;;;31.70;52.70;;;;;;5115012;27;20043;-74
2022/08/19 08:31:37;;;;;;;17.38;8.38;;;31.80;52.00;;;;;;5108187;27;20027;-74
2022/08/19 08:34:02;;;;;;;13.05;7.93;;;32.00;52.20;;;;;;5095389;28;20032;-74
2022/08/19 08:36:28;;;;;;;21.98;7.63;;;32.10;52.20;;;;;;5095258;28;20028;-75
2022/08/19 08:38:56;;;;;;;13.48;7.15;;;32.30;50.50;;;;;;5095342;28;20020;-75
2022/08/19 08:41:47;;;;;;;9.48;6.38;;;32.40;49.60;;;;;;5115671;28;20020;-74
2022/08/19 08:44:21;;;;;;;14.02;7.28;;;32.50;48.70;;;;;;5115621;28;20076;-73
2022/08/19 08:46:52;;;;;;;7.90;6.30;;;32.70;48.70;;;;;;5115651;28;20102;-78
2022/08/19 08:49:40;;;;;;;11.35;7.22;;;32.70;47.90;;;;;;5115427;28;20518;-73
2022/08/19 08:52:13;;;;;;;10.52;7.55;;;32.80;49.10;;;;;;5115447;28;20113;-78
2022/08/19 08:54:43;;;;;;;14.30;7.80;;;33.00;49.40;;;;;;5112885;28;20024;-78
2022/08/19 08:57:21;;;;;;;16.45;7.85;;;33.00;48.40;;;;;;5117275;27;20043;-78
2022/08/19 08:59:51;;;;;;;28.20;7.82;;;33.00;48.40;;;;;;5093601;28;20028;-74
2022/08/19 09:02:18;;;;;;;9.00;6.40;;;33.20;47.30;;;;;;5094052;28;20099;-73
2022/08/19 09:04:44;;;;;;;11.18;6.90;;;33.20;45.80;;;;;;5097182;28;20055;-77
2022/08/19 09:07:41;;;;;;;22.00;6.93;;;33.00;46.00;;;;;;5101010;28;20101;-77
2022/08/19 09:10:31;;;;;;;8.45;6.05;;;32.80;45.50;;;;;;5113068;27;20039;-79
2022/08/19 09:13:22;;;;;;;11.93;5.97;;;32.90;45.70;;;;;;5105051;27;20047;-79
2022/08/19 09:15:53;;;;;;;10.27;5.78;;;32.90;45.70;;;;;;5094320;28;20024;-74
2022/08/19 09:18:19;;;;;;;10.50;6.53;;;32.70;45.60;;;;;;5094360;28;20020;-73
2022/08/19 09:20:47;;;;;;;9.82;6.30;;;32.60;46.90;;;;;;5093287;28;20173;-74
2022/08/19 09:23:12;;;;;;;12.50;6.60;;;32.70;47.50;;;;;;5092751;28;20035;-73
2022/08/19 09:25:39;;;;;;;7.10;5.28;;;32.80;48.00;;;;;;5093009;28;20389;-74
2022/08/19 09:28:06;;;;;;;10.10;5.68;;;32.90;46.50;;;;;;5093888;28;20542;-74
2022/08/19 09:30:38;;;;;;;13.75;6.15;;;33.00;45.90;;;;;;5123380;27;20154;-73
2022/08/19 09:33:05;;;;;;;9.13;6.78;;;33.00;45.40;;;;;;5108183;27;20024;-73
2022/08/19 09:35:31;;;;;;;10.52;6.28;;;33.10;46.30;;;;;;5093892;28;20028;-73
2022/08/19 09:37:58;;;;;;;11.88;6.03;;;33.20;44.80;;;;;;5092966;28;20020;-73
2022/08/19 09:40:24;;;;;;;17.17;5.68;;;33.20;44.20;;;;;;5094230;28;20024;-74
2022/08/19 09:42:50;;;;;;;9.07;5.97;;;33.30;44.50;;;;;;5092924;28;20384;-74
2022/08/19 09:45:18;;;;;;;15.68;6.47;;;33.50;44.80;;;;;;5092598;28;20020;-74
2022/08/19 09:47:43;;;;;;;8.48;6.40;;;33.40;44.50;;;;;;5092227;28;20048;-73
2022/08/19 09:50:11;;;;;;;7.68;5.72;;;33.40;43.00;;;;;;5100602;28;20083;-73
2022/08/19 09:52:37;;;;;;;10.15;6.10;;;33.40;43.60;;;;;;5104968;28;20115;-73
2022/08/19 09:55:09;;;;;;;11.77;5.93;;;33.60;45.20;;;;;;5107415;28;20485;-73
2022/08/19 09:57:35;;;;;;;8.80;6.25;;;33.70;45.30;;;;;;5114329;28;20024;-74
2022/08/19 10:00:02;;;;;;;12.07;6.47;;;33.80;44.00;;;;;;5114380;28;20099;-79
2022/08/19 10:02:28;;;;;;;10.93;6.55;;;33.70;43.40;;;;;;5112869;28;20034;-74
2022/08/19 10:07:38;;;;;;;9.13;5.80;;;33.60;43.10;;;;;;5101123;28;20510;-74
2022/08/19 10:10:06;;;;;;;18.38;6.25;;;33.30;43.40;;;;;;5107302;28;20044;-78
2022/08/19 10:12:33;;;;;;;13.52;5.78;;;33.20;43.60;;;;;;5096539;28;20039;-78
2022/08/19 10:14:59;;;;;;;34.35;8.15;;;33.00;45.10;;;;;;5108653;28;20023;-77
2022/08/19 10:17:26;;;;;;;8.85;6.50;;;33.00;46.30;;;;;;5096905;28;20028;-74
2022/08/19 10:19:52;;;;;;;7.97;6.25;;;33.00;46.80;;;;;;5093865;28;20504;-78
2022/08/19 10:22:18;;;;;;;7.88;6.57;;;33.00;46.90;;;;;;5098671;28;20470;-79
2022/08/19 10:24:45;;;;;;;12.15;6.57;;;33.20;46.30;;;;;;5093452;28;20027;-78
2022/08/19 10:27:12;;;;;;;10.55;6.88;;;33.40;44.90;;;;;;5092096;28;20073;-78
2022/08/19 10:29:38;;;;;;;7.72;6.00;;;33.60;44.30;;;;;;5104030;27;20041;-80
2022/08/19 10:32:07;;;;;;;9.75;6.13;;;33.70;44.70;;;;;;5132902;27;20015;-79
2022/08/19 10:34:34;;;;;;;8.85;6.88;;;33.90;45.10;;;;;;5118836;27;20517;-79
2022/08/19 10:37:00;;;;;;;12.13;6.32;;;33.90;44.30;;;;;;5111323;28;20031;-78
2022/08/19 10:39:29;;;;;;;8.70;5.13;;;34.00;43.80;;;;;;5108601;28;20031;-75
2022/08/19 10:41:56;;;;;;;11.70;5.80;;;34.00;42.80;;;;;;5100033;28;20027;-74
2022/08/19 10:44:23;;;;;;;13.82;6.30;;;33.90;42.10;;;;;;5095695;28;20026;-74
2022/08/19 10:46:49;;;;;;;8.73;5.90;;;33.90;43.30;;;;;;5095924;28;20020;-78
2022/08/19 10:49:15;;;;;;;14.27;6.53;;;34.20;45.40;;;;;;5101075;28;20092;-79
2022/08/19 10:56:50;;;;;;;10.13;6.55;;;34.10;44.10;;;;;;5093024;28;20043;-73
2022/08/19 10:57:12;;;;;;;53.17;9.45;;;34.10;43.90;;;;;;5098881;28;20399;-73
2022/08/19 10:59:38;;;;;;;11.98;5.93;;;33.80;44.00;;;;;;5102384;28;20027;-74
2022/08/19 11:02:09;;;;;;;8.80;5.32;;;33.60;44.00;;;;;;5091559;28;20024;-74
2022/08/19 11:04:36;;;;;;;7.57;6.63;;;33.70;43.10;;;;;;5093645;28;20055;-74
2022/08/19 11:07:03;;;;;;;8.52;6.28;;;33.70;43.70;;;;;;5093413;28;20023;-74
2022/08/19 11:09:29;;;;;;;10.82;6.88;;;33.80;44.60;;;;;;5101120;28;20358;-74
2022/08/19 11:11:56;;;;;;;6.47;5.80;;;33.80;46.00;;;;;;5090781;28;20031;-74
2022/08/19 11:14:23;;;;;;;9.52;5.55;;;34.00;44.90;;;;;;5095921;28;20055;-74
2022/08/19 11:16:50;;;;;;;8.63;6.43;;;34.10;44.10;;;;;;5094354;28;20504;-73
2022/08/19 11:19:19;;;;;;;10.20;5.85;;;34.30;44.00;;;;;;5098400;28;20100;-73
2022/08/19 11:21:48;;;;;;;9.95;6.20;;;34.30;43.70;;;;;;5099368;28;20020;-73
2022/08/19 11:24:23;;;;;;;11.30;6.15;;;34.40;44.40;;;;;;5090173;28;20027;-73
2022/08/19 11:26:50;;;;;;;11.65;6.70;;;34.40;44.70;;;;;;5096537;28;20031;-73
2022/08/19 11:29:18;;;;;;;10.07;6.72;;;34.30;45.30;;;;;;5101539;27;20035;-73
2022/08/19 11:31:46;;;;;;;9.57;6.68;;;34.30;44.30;;;;;;5137811;27;20024;-73
2022/08/19 11:34:16;;;;;;;9.98;6.65;;;34.30;44.70;;;;;;5136147;27;20622;-74
2022/08/19 11:36:44;;;;;;;10.73;7.05;;;34.30;43.20;;;;;;5137694;27;20025;-73
2022/08/19 11:39:12;;;;;;;10.82;6.10;;;34.50;44.40;;;;;;5132197;27;20020;-73
2022/08/19 11:41:38;;;;;;;11.48;6.55;;;34.50;44.30;;;;;;5114094;27;20465;-73
2022/08/19 11:44:04;;;;;;;9.57;6.25;;;34.50;44.70;;;;;;5116664;28;20030;-73
2022/08/19 11:46:31;;;;;;;13.45;6.50;;;34.60;43.50;;;;;;5114169;28;20027;-73
2022/08/19 11:48:58;;;;;;;14.30;6.47;;;34.50;43.90;;;;;;5104275;28;20047;-74
2022/08/19 11:51:25;;;;;;;7.68;5.85;;;34.50;44.80;;;;;;5097659;28;20038;-73
2022/08/19 11:53:51;;;;;;;16.70;6.95;;;34.50;45.10;;;;;;5094341;28;20019;-73
2022/08/19 11:56:18;;;;;;;10.85;6.65;;;34.30;44.10;;;;;;5096180;28;20077;-74
2022/08/19 11:58:44;;;;;;;10.60;6.18;;;34.20;44.70;;;;;;5096060;28;20094;-73
2022/08/19 12:01:16;;;;;;;9.52;6.38;;;34.30;44.70;;;;;;5103306;28;20050;-79
2022/08/19 12:03:44;;;;;;;30.25;9.30;;;34.40;44.30;;;;;;5116320;28;20016;-79
2022/08/19 12:06:25;;;;;;;11.95;6.68;;;34.50;43.90;;;;;;5116418;28;20080;-74
2022/08/19 12:08:51;;;;;;;10.70;6.03;;;34.40;43.50;;;;;;5116054;28;20050;-73
2022/08/19 12:11:17;;;;;;;9.15;6.20;;;34.60;44.20;;;;;;5106071;28;20036;-78
2022/08/19 12:13:47;;;;;;;50.88;8.00;;;34.60;45.00;;;;;;5094352;28;20040;-78
2022/08/19 12:16:26;;;;;;;13.75;6.95;;;34.70;44.30;;;;;;5099988;28;20026;-78
2022/08/19 12:18:53;;;;;;;8.02;5.97;;;34.90;43.60;;;;;;5103390;28;20030;-78
2022/08/19 12:21:23;;;;;;;12.45;7.18;;;34.90;42.60;;;;;;5101248;28;20058;-73
2022/08/19 12:23:50;;;;;;;14.13;6.70;;;35.00;43.10;;;;;;5114508;28;20112;-79
2022/08/19 12:26:16;;;;;;;9.48;5.72;;;35.10;43.10;;;;;;5101831;28;20103;-79
2022/08/19 12:28:42;;;;;;;11.10;6.00;;;35.20;43.50;;;;;;5103361;28;20031;-79
2022/08/19 12:31:08;;;;;;;10.82;6.35;;;35.20;43.00;;;;;;5114982;27;20046;-79
2022/08/19 12:33:33;;;;;;;13.70;6.32;;;35.40;42.20;;;;;;5115813;28;20525;-79
2022/08/19 12:36:06;;;;;;;12.73;5.93;;;35.40;42.60;;;;;;5116072;28;20047;-79
2022/08/19 12:38:32;;;;;;;19.27;6.25;;;35.00;43.40;;;;;;5114958;27;20024;-78
2022/08/19 12:40:58;;;;;;;10.43;6.22;;;34.90;42.70;;;;;;5115702;28;20096;-79
2022/08/19 12:43:24;;;;;;;12.80;7.03;;;34.80;42.50;;;;;;5115666;28;20028;-79
2022/08/19 12:45:50;;;;;;;13.57;7.95;;;34.80;42.90;;;;;;5115707;28;20030;-78
2022/08/19 12:48:16;;;;;;;11.27;6.38;;;34.80;42.50;;;;;;5115572;28;20024;-78
2022/08/19 12:50:44;;;;;;;8.85;5.63;;;34.80;42.50;;;;;;5115658;28;20051;-78
2022/08/19 12:53:10;;;;;;;10.15;5.80;;;34.80;41.40;;;;;;5115648;28;20426;-79
2022/08/19 12:55:36;;;;;;;12.07;6.78;;;34.80;43.00;;;;;;5115518;28;20020;-78
2022/08/19 12:58:02;;;;;;;8.68;5.78;;;34.80;44.00;;;;;;5115433;28;20055;-78